aviador You're here:

KISM Decoded Metar

KISSIMMEE/ORLAND in FL, USA
Report Time2018-02-25 11:23:00
UTC Time2018-02-25 11:39:03
Flight Rules mvfr MVFR
WindCalm
Visibility4828 m
Phenomena:Mist
Clouds:N/A
Expected CloudBase > 400 ft AGL from Temp-Dew spread
CeilingNone
Temp18°C (ISA +3)
Dew Point17°C (94% RH)
QNH1022 hPa
Density Alt407 ft
Elevation82 ft
Report Wrong Elevation
Raw Report
KISM 251123Z AUTO 00000KT 3SM BR CLR 18/17 A3018=

Extra information for KISM:More info

Metar Taf Metar & Taf Last 4 Metars F.Rules Stats Wind Profile Meteogram Temp Stats Airport Information Weather charts Add Link Nearby VenuesMetar ALERT Operation Metar Decoded Social comments

AIRNAV info for KISM